sensor_id;sensor_type;location;lat;lon;timestamp;temperature;humidity
36790;DHT22;22740;52.182;8.780;2023-11-21T00:05:21;7.60;99.90
36790;DHT22;22740;52.182;8.780;2023-11-21T00:11:25;7.60;99.90
36790;DHT22;22740;52.182;8.780;2023-11-21T00:17:27;7.50;99.90
36790;DHT22;22740;52.182;8.780;2023-11-21T00:23:30;7.50;99.90
36790;DHT22;22740;52.182;8.780;2023-11-21T00:29:32;7.50;99.90
36790;DHT22;22740;52.182;8.780;2023-11-21T00:35:34;7.50;99.90
36790;DHT22;22740;52.182;8.780;2023-11-21T00:41:36;7.50;99.90
36790;DHT22;22740;52.182;8.780;2023-11-21T00:47:39;7.60;99.90
36790;DHT22;22740;52.182;8.780;2023-11-21T00:53:41;7.50;99.90
36790;DHT22;22740;52.182;8.780;2023-11-21T00:59:43;7.50;99.90
36790;DHT22;22740;52.182;8.780;2023-11-21T01:05:45;7.50;99.90
36790;DHT22;22740;52.182;8.780;2023-11-21T01:11:47;7.60;99.90
36790;DHT22;22740;52.182;8.780;2023-11-21T01:17:49;7.50;99.90
36790;DHT22;22740;52.182;8.780;2023-11-21T01:23:51;7.50;99.90
36790;DHT22;22740;52.182;8.780;2023-11-21T01:29:53;7.50;99.90
36790;DHT22;22740;52.182;8.780;2023-11-21T01:35:55;7.50;99.90
36790;DHT22;22740;52.182;8.780;2023-11-21T01:41:58;7.50;99.90
36790;DHT22;22740;52.182;8.780;2023-11-21T01:48:00;7.60;99.90
36790;DHT22;22740;52.182;8.780;2023-11-21T01:54:03;7.60;99.90
36790;DHT22;22740;52.182;8.780;2023-11-21T02:00:17;7.60;99.90
36790;DHT22;22740;52.182;8.780;2023-11-21T02:06:20;7.60;99.90
36790;DHT22;22740;52.182;8.780;2023-11-21T02:12:23;7.60;99.90
36790;DHT22;22740;52.182;8.780;2023-11-21T02:18:28;7.70;99.90
36790;DHT22;22740;52.182;8.780;2023-11-21T02:24:30;7.60;99.90
36790;DHT22;22740;52.182;8.780;2023-11-21T02:30:33;7.60;99.90
36790;DHT22;22740;52.182;8.780;2023-11-21T02:36:35;7.60;99.90
36790;DHT22;22740;52.182;8.780;2023-11-21T02:42:39;7.60;99.90
36790;DHT22;22740;52.182;8.780;2023-11-21T02:48:41;7.60;99.90
36790;DHT22;22740;52.182;8.780;2023-11-21T02:54:43;7.60;99.90
36790;DHT22;22740;52.182;8.780;2023-11-21T03:00:45;7.70;99.90
36790;DHT22;22740;52.182;8.780;2023-11-21T03:06:46;7.70;99.90
36790;DHT22;22740;52.182;8.780;2023-11-21T03:12:49;7.70;99.90
36790;DHT22;22740;52.182;8.780;2023-11-21T03:18:51;7.70;99.90
36790;DHT22;22740;52.182;8.780;2023-11-21T03:24:54;7.70;99.90
36790;DHT22;22740;52.182;8.780;2023-11-21T03:30:56;7.70;99.90
36790;DHT22;22740;52.182;8.780;2023-11-21T03:36:58;7.70;99.90
36790;DHT22;22740;52.182;8.780;2023-11-21T03:43:01;7.70;99.90
36790;DHT22;22740;52.182;8.780;2023-11-21T03:49:03;7.80;99.90
36790;DHT22;22740;52.182;8.780;2023-11-21T03:55:05;7.70;99.90
36790;DHT22;22740;52.182;8.780;2023-11-21T04:01:07;7.80;99.90
36790;DHT22;22740;52.182;8.780;2023-11-21T04:07:09;7.70;99.90
36790;DHT22;22740;52.182;8.780;2023-11-21T04:13:10;7.80;99.90
36790;DHT22;22740;52.182;8.780;2023-11-21T04:19:12;7.80;99.90
36790;DHT22;22740;52.182;8.780;2023-11-21T04:25:16;7.90;99.90
36790;DHT22;22740;52.182;8.780;2023-11-21T04:31:18;7.90;99.90
36790;DHT22;22740;52.182;8.780;2023-11-21T04:37:20;8.00;99.90
36790;DHT22;22740;52.182;8.780;2023-11-21T04:43:23;8.00;99.90
36790;DHT22;22740;52.182;8.780;2023-11-21T04:49:25;7.90;99.90
36790;DHT22;22740;52.182;8.780;2023-11-21T04:55:27;8.00;99.90
36790;DHT22;22740;52.182;8.780;2023-11-21T05:01:29;8.00;99.90
36790;DHT22;22740;52.182;8.780;2023-11-21T05:07:32;7.90;99.90
36790;DHT22;22740;52.182;8.780;2023-11-21T05:13:34;7.90;99.90
36790;DHT22;22740;52.182;8.780;2023-11-21T05:19:36;7.90;99.90
36790;DHT22;22740;52.182;8.780;2023-11-21T05:25:39;7.80;99.90
36790;DHT22;22740;52.182;8.780;2023-11-21T05:31:41;7.80;99.90
36790;DHT22;22740;52.182;8.780;2023-11-21T05:37:47;7.90;99.90
36790;DHT22;22740;52.182;8.780;2023-11-21T05:43:49;7.80;99.90
36790;DHT22;22740;52.182;8.780;2023-11-21T05:49:51;7.90;99.90
36790;DHT22;22740;52.182;8.780;2023-11-21T05:55:55;8.00;99.90
36790;DHT22;22740;52.182;8.780;2023-11-21T06:01:56;7.90;99.90
36790;DHT22;22740;52.182;8.780;2023-11-21T06:07:58;7.90;99.90
36790;DHT22;22740;52.182;8.780;2023-11-21T06:14:02;8.00;99.90
36790;DHT22;22740;52.182;8.780;2023-11-21T06:20:14;7.90;99.90
36790;DHT22;22740;52.182;8.780;2023-11-21T06:26:16;7.90;99.90
36790;DHT22;22740;52.182;8.780;2023-11-21T06:32:18;7.90;99.90
36790;DHT22;22740;52.182;8.780;2023-11-21T06:38:22;7.90;99.90
36790;DHT22;22740;52.182;8.780;2023-11-21T06:44:24;7.80;99.90
36790;DHT22;22740;52.182;8.780;2023-11-21T06:50:26;7.70;99.90
36790;DHT22;22740;52.182;8.780;2023-11-21T06:56:28;7.80;99.90
36790;DHT22;22740;52.182;8.780;2023-11-21T07:02:31;7.80;99.90
36790;DHT22;22740;52.182;8.780;2023-11-21T07:08:33;7.80;99.90
36790;DHT22;22740;52.182;8.780;2023-11-21T07:14:35;7.70;99.90
36790;DHT22;22740;52.182;8.780;2023-11-21T07:20:37;7.70;99.90
36790;DHT22;22740;52.182;8.780;2023-11-21T07:26:39;7.80;99.90
36790;DHT22;22740;52.182;8.780;2023-11-21T07:32:41;7.80;99.90
36790;DHT22;22740;52.182;8.780;2023-11-21T07:38:43;7.80;99.90
36790;DHT22;22740;52.182;8.780;2023-11-21T07:44:45;7.80;99.90
36790;DHT22;22740;52.182;8.780;2023-11-21T07:50:48;7.80;99.90
36790;DHT22;22740;52.182;8.780;2023-11-21T07:56:50;7.80;99.90
36790;DHT22;22740;52.182;8.780;2023-11-21T08:02:52;7.90;99.90
36790;DHT22;22740;52.182;8.780;2023-11-21T08:08:54;7.90;99.90
36790;DHT22;22740;52.182;8.780;2023-11-21T08:14:56;7.90;99.90
36790;DHT22;22740;52.182;8.780;2023-11-21T08:20:58;7.90;99.90
36790;DHT22;22740;52.182;8.780;2023-11-21T08:27:00;7.90;99.90
36790;DHT22;22740;52.182;8.780;2023-11-21T08:33:02;8.00;99.90
36790;DHT22;22740;52.182;8.780;2023-11-21T08:39:05;7.90;99.90
36790;DHT22;22740;52.182;8.780;2023-11-21T08:45:08;7.90;99.90
36790;DHT22;22740;52.182;8.780;2023-11-21T08:51:11;7.90;99.90
36790;DHT22;22740;52.182;8.780;2023-11-21T08:57:13;7.70;99.90
36790;DHT22;22740;52.182;8.780;2023-11-21T09:03:15;7.60;99.90
36790;DHT22;22740;52.182;8.780;2023-11-21T09:09:17;7.60;99.90
36790;DHT22;22740;52.182;8.780;2023-11-21T09:15:21;7.60;99.90
36790;DHT22;22740;52.182;8.780;2023-11-21T09:21:23;7.60;99.90
36790;DHT22;22740;52.182;8.780;2023-11-21T09:27:26;7.50;99.90
36790;DHT22;22740;52.182;8.780;2023-11-21T09:33:28;7.40;99.90
36790;DHT22;22740;52.182;8.780;2023-11-21T09:39:33;7.40;99.90
36790;DHT22;22740;52.182;8.780;2023-11-21T09:45:38;7.50;99.90
36790;DHT22;22740;52.182;8.780;2023-11-21T09:51:43;7.30;99.90
36790;DHT22;22740;52.182;8.780;2023-11-21T09:57:45;7.20;99.90
36790;DHT22;22740;52.182;8.780;2023-11-21T10:03:47;7.00;99.90
36790;DHT22;22740;52.182;8.780;2023-11-21T10:09:51;7.10;99.90
36790;DHT22;22740;52.182;8.780;2023-11-21T10:15:53;7.10;99.90
36790;DHT22;22740;52.182;8.780;2023-11-21T10:21:55;7.00;99.90
36790;DHT22;22740;52.182;8.780;2023-11-21T10:28:02;6.90;99.90
36790;DHT22;22740;52.182;8.780;2023-11-21T10:34:16;6.80;99.90
36790;DHT22;22740;52.182;8.780;2023-11-21T10:40:18;6.70;99.90
36790;DHT22;22740;52.182;8.780;2023-11-21T10:46:20;6.70;99.90
36790;DHT22;22740;52.182;8.780;2023-11-21T10:52:26;6.70;99.90
36790;DHT22;22740;52.182;8.780;2023-11-21T10:58:29;6.60;99.90
36790;DHT22;22740;52.182;8.780;2023-11-21T11:04:31;6.50;99.90
36790;DHT22;22740;52.182;8.780;2023-11-21T11:10:34;6.60;99.90
36790;DHT22;22740;52.182;8.780;2023-11-21T11:16:37;6.60;99.90
36790;DHT22;22740;52.182;8.780;2023-11-21T11:29:09;6.40;99.90
36790;DHT22;22740;52.182;8.780;2023-11-21T11:35:26;6.40;99.90
36790;DHT22;22740;52.182;8.780;2023-11-21T11:41:32;6.40;99.90
36790;DHT22;22740;52.182;8.780;2023-11-21T11:47:36;6.50;99.90
36790;DHT22;22740;52.182;8.780;2023-11-21T11:53:45;6.40;99.90
36790;DHT22;22740;52.182;8.780;2023-11-21T12:00:13;6.60;99.90
36790;DHT22;22740;52.182;8.780;2023-11-21T12:06:33;6.50;99.90
36790;DHT22;22740;52.182;8.780;2023-11-21T12:12:35;6.40;99.90
36790;DHT22;22740;52.182;8.780;2023-11-21T12:18:37;6.40;99.90
36790;DHT22;22740;52.182;8.780;2023-11-21T12:24:40;6.40;99.90
36790;DHT22;22740;52.182;8.780;2023-11-21T12:30:41;6.50;99.90
36790;DHT22;22740;52.182;8.780;2023-11-21T12:36:45;6.50;99.90
36790;DHT22;22740;52.182;8.780;2023-11-21T12:42:51;6.70;99.90
36790;DHT22;22740;52.182;8.780;2023-11-21T12:48:55;6.80;99.90
36790;DHT22;22740;52.182;8.780;2023-11-21T12:54:58;6.80;99.90
36790;DHT22;22740;52.182;8.780;2023-11-21T13:01:00;6.80;99.90
36790;DHT22;22740;52.182;8.780;2023-11-21T13:07:05;6.80;99.90
36790;DHT22;22740;52.182;8.780;2023-11-21T13:13:16;6.80;99.90
36790;DHT22;22740;52.182;8.780;2023-11-21T13:19:25;6.90;99.90
36790;DHT22;22740;52.182;8.780;2023-11-21T13:25:31;6.80;99.90
36790;DHT22;22740;52.182;8.780;2023-11-21T13:31:34;7.00;99.90
36790;DHT22;22740;52.182;8.780;2023-11-21T13:37:39;7.00;99.90
36790;DHT22;22740;52.182;8.780;2023-11-21T13:43:41;6.80;99.90
36790;DHT22;22740;52.182;8.780;2023-11-21T13:49:47;7.00;99.90
36790;DHT22;22740;52.182;8.780;2023-11-21T13:55:54;6.90;99.90
36790;DHT22;22740;52.182;8.780;2023-11-21T14:01:57;6.70;99.90
36790;DHT22;22740;52.182;8.780;2023-11-21T14:08:13;6.70;99.90
36790;DHT22;22740;52.182;8.780;2023-11-21T14:14:21;6.60;99.90
36790;DHT22;22740;52.182;8.780;2023-11-21T14:20:23;6.90;99.90
36790;DHT22;22740;52.182;8.780;2023-11-21T14:26:25;6.80;99.90
36790;DHT22;22740;52.182;8.780;2023-11-21T14:32:28;6.70;99.90
36790;DHT22;22740;52.182;8.780;2023-11-21T14:38:31;6.60;99.90
36790;DHT22;22740;52.182;8.780;2023-11-21T14:44:33;6.60;99.90
36790;DHT22;22740;52.182;8.780;2023-11-21T14:50:40;6.60;99.90
36790;DHT22;22740;52.182;8.780;2023-11-21T14:57:11;6.40;99.90
36790;DHT22;22740;52.182;8.780;2023-11-21T15:03:17;6.40;99.90
36790;DHT22;22740;52.182;8.780;2023-11-21T15:09:34;6.40;99.90
36790;DHT22;22740;52.182;8.780;2023-11-21T15:15:36;6.40;99.90
36790;DHT22;22740;52.182;8.780;2023-11-21T15:21:38;6.30;99.90
36790;DHT22;22740;52.182;8.780;2023-11-21T15:27:40;6.30;99.90
36790;DHT22;22740;52.182;8.780;2023-11-21T15:33:43;6.30;99.90
36790;DHT22;22740;52.182;8.780;2023-11-21T15:39:45;6.40;99.90
36790;DHT22;22740;52.182;8.780;2023-11-21T15:45:47;6.30;99.90
36790;DHT22;22740;52.182;8.780;2023-11-21T15:51:49;6.20;99.90
36790;DHT22;22740;52.182;8.780;2023-11-21T15:57:54;6.20;99.90
36790;DHT22;22740;52.182;8.780;2023-11-21T16:03:56;6.10;99.90
36790;DHT22;22740;52.182;8.780;2023-11-21T16:09:58;6.10;99.90
36790;DHT22;22740;52.182;8.780;2023-11-21T16:16:01;6.10;99.90
36790;DHT22;22740;52.182;8.780;2023-11-21T16:22:03;6.10;99.90
36790;DHT22;22740;52.182;8.780;2023-11-21T16:28:05;6.10;99.90
36790;DHT22;22740;52.182;8.780;2023-11-21T16:34:15;6.20;99.90
36790;DHT22;22740;52.182;8.780;2023-11-21T16:40:21;6.10;99.90
36790;DHT22;22740;52.182;8.780;2023-11-21T16:46:23;6.10;99.90
36790;DHT22;22740;52.182;8.780;2023-11-21T16:52:26;6.10;99.90
36790;DHT22;22740;52.182;8.780;2023-11-21T16:58:28;6.20;99.90
36790;DHT22;22740;52.182;8.780;2023-11-21T17:04:30;6.20;99.90
36790;DHT22;22740;52.182;8.780;2023-11-21T17:10:34;6.00;99.90
36790;DHT22;22740;52.182;8.780;2023-11-21T17:16:36;6.00;99.90
36790;DHT22;22740;52.182;8.780;2023-11-21T17:22:39;5.90;99.90
36790;DHT22;22740;52.182;8.780;2023-11-21T17:28:42;5.90;99.90
36790;DHT22;22740;52.182;8.780;2023-11-21T17:34:44;5.90;99.90
36790;DHT22;22740;52.182;8.780;2023-11-21T17:40:46;5.90;99.90
36790;DHT22;22740;52.182;8.780;2023-11-21T17:46:49;5.80;99.90
36790;DHT22;22740;52.182;8.780;2023-11-21T17:52:51;5.80;99.90
36790;DHT22;22740;52.182;8.780;2023-11-21T17:58:53;5.80;99.90
36790;DHT22;22740;52.182;8.780;2023-11-21T18:04:56;5.80;99.90
36790;DHT22;22740;52.182;8.780;2023-11-21T18:10:58;5.60;99.90
36790;DHT22;22740;52.182;8.780;2023-11-21T18:17:01;5.70;99.90
36790;DHT22;22740;52.182;8.780;2023-11-21T18:23:03;5.70;99.90
36790;DHT22;22740;52.182;8.780;2023-11-21T18:29:05;5.60;99.90
36790;DHT22;22740;52.182;8.780;2023-11-21T18:35:07;5.70;99.90
36790;DHT22;22740;52.182;8.780;2023-11-21T18:41:10;5.70;99.90
36790;DHT22;22740;52.182;8.780;2023-11-21T18:47:12;5.60;99.90
36790;DHT22;22740;52.182;8.780;2023-11-21T18:53:16;5.50;99.90
36790;DHT22;22740;52.182;8.780;2023-11-21T18:59:19;5.60;99.90
36790;DHT22;22740;52.182;8.780;2023-11-21T19:05:22;5.50;99.90
36790;DHT22;22740;52.182;8.780;2023-11-21T19:11:24;5.50;99.90
36790;DHT22;22740;52.182;8.780;2023-11-21T19:17:26;5.50;99.90
36790;DHT22;22740;52.182;8.780;2023-11-21T19:23:28;5.50;99.90
36790;DHT22;22740;52.182;8.780;2023-11-21T19:29:31;5.40;99.90
36790;DHT22;22740;52.182;8.780;2023-11-21T19:35:33;5.50;99.90
36790;DHT22;22740;52.182;8.780;2023-11-21T19:41:40;5.60;99.90
36790;DHT22;22740;52.182;8.780;2023-11-21T19:47:45;5.50;99.90
36790;DHT22;22740;52.182;8.780;2023-11-21T19:53:47;5.50;99.90
36790;DHT22;22740;52.182;8.780;2023-11-21T19:59:49;5.50;99.90
36790;DHT22;22740;52.182;8.780;2023-11-21T20:05:51;5.50;99.90
36790;DHT22;22740;52.182;8.780;2023-11-21T20:11:53;5.50;99.90
36790;DHT22;22740;52.182;8.780;2023-11-21T20:17:55;5.50;99.90
36790;DHT22;22740;52.182;8.780;2023-11-21T20:23:57;5.60;99.90
36790;DHT22;22740;52.182;8.780;2023-11-21T20:29:59;5.70;99.90
36790;DHT22;22740;52.182;8.780;2023-11-21T20:36:01;5.70;99.90
36790;DHT22;22740;52.182;8.780;2023-11-21T20:42:06;5.60;99.90
36790;DHT22;22740;52.182;8.780;2023-11-21T20:48:08;5.60;99.90
36790;DHT22;22740;52.182;8.780;2023-11-21T20:54:10;5.30;99.90
36790;DHT22;22740;52.182;8.780;2023-11-21T21:00:12;5.10;99.90
36790;DHT22;22740;52.182;8.780;2023-11-21T21:06:16;4.80;99.90
36790;DHT22;22740;52.182;8.780;2023-11-21T21:12:19;4.90;99.90
36790;DHT22;22740;52.182;8.780;2023-11-21T21:18:20;4.90;99.90
36790;DHT22;22740;52.182;8.780;2023-11-21T21:24:23;4.90;99.90
36790;DHT22;22740;52.182;8.780;2023-11-21T21:30:25;5.10;99.90
36790;DHT22;22740;52.182;8.780;2023-11-21T21:36:30;4.90;99.90
36790;DHT22;22740;52.182;8.780;2023-11-21T21:42:34;4.90;99.90
36790;DHT22;22740;52.182;8.780;2023-11-21T21:48:36;4.90;99.90
36790;DHT22;22740;52.182;8.780;2023-11-21T21:54:39;4.80;99.90
36790;DHT22;22740;52.182;8.780;2023-11-21T22:00:41;4.60;99.90
36790;DHT22;22740;52.182;8.780;2023-11-21T22:06:44;4.40;99.90
36790;DHT22;22740;52.182;8.780;2023-11-21T22:12:46;4.30;99.90
36790;DHT22;22740;52.182;8.780;2023-11-21T22:18:47;4.20;99.90
36790;DHT22;22740;52.182;8.780;2023-11-21T22:24:53;4.10;99.90
36790;DHT22;22740;52.182;8.780;2023-11-21T22:30:55;4.00;99.90
36790;DHT22;22740;52.182;8.780;2023-11-21T22:36:57;4.00;99.90
36790;DHT22;22740;52.182;8.780;2023-11-21T22:42:59;4.20;99.90
36790;DHT22;22740;52.182;8.780;2023-11-21T22:49:01;4.20;99.90
36790;DHT22;22740;52.182;8.780;2023-11-21T22:55:03;4.30;99.90
36790;DHT22;22740;52.182;8.780;2023-11-21T23:01:06;4.40;99.90
36790;DHT22;22740;52.182;8.780;2023-11-21T23:07:13;4.50;99.90
36790;DHT22;22740;52.182;8.780;2023-11-21T23:13:14;4.40;99.90
36790;DHT22;22740;52.182;8.780;2023-11-21T23:19:16;4.30;99.90
36790;DHT22;22740;52.182;8.780;2023-11-21T23:25:19;4.10;99.90
36790;DHT22;22740;52.182;8.780;2023-11-21T23:31:22;3.70;99.90
36790;DHT22;22740;52.182;8.780;2023-11-21T23:37:24;3.30;99.90
36790;DHT22;22740;52.182;8.780;2023-11-21T23:43:25;3.20;99.90
36790;DHT22;22740;52.182;8.780;2023-11-21T23:49:30;3.20;99.90
36790;DHT22;22740;52.182;8.780;2023-11-21T23:55:32;3.20;99.90
